Holland, Kentucky
Current Conditions -  °F | °C
As of 12:15 PM on Thursday 27 Nov 2014 (Local Time) from KGLW Reporting Station
Overcast Overcast  
Wind Chill: 22°   Ceiling: 1600
Heat Index: 31°   Visibility: 10mi
Dew Point: 25°   Wind: 10mph
Humidity: 80%   Direction: 290°WNW
Pressure: 30.39"   Gusts: 18mph
Location:  36.7°N, 86.07°W
Report Text: KGLW 271815Z AUTO 29009G16KT 10SM BKN016 OVC026 M01/M04 A3039 RMK AO2 T10061037
Loading
Personal Weather Stations






























Interactive Weather Map New forecast layout! Learn more

10-Day Weather Forecast

Advertisements
Track Severe Weather on mobile